sensor_id;sensor_type;location;lat;lon;timestamp;P1;durP1;ratioP1;P2;durP2;ratioP2
52031;SDS011;38044;45.148;39.604;2023-08-06T00:02:23;7.43;;;4.25;;
52031;SDS011;38044;45.148;39.604;2023-08-06T00:04:49;8.27;;;4.03;;
52031;SDS011;38044;45.148;39.604;2023-08-06T00:07:15;6.82;;;4.38;;
52031;SDS011;38044;45.148;39.604;2023-08-06T00:09:41;6.82;;;4.40;;
52031;SDS011;38044;45.148;39.604;2023-08-06T00:12:07;6.50;;;4.30;;
52031;SDS011;38044;45.148;39.604;2023-08-06T00:14:33;7.70;;;4.13;;
52031;SDS011;38044;45.148;39.604;2023-08-06T00:16:58;9.43;;;4.05;;
52031;SDS011;38044;45.148;39.604;2023-08-06T00:19:24;7.68;;;3.58;;
52031;SDS011;38044;45.148;39.604;2023-08-06T00:21:50;7.38;;;4.35;;
52031;SDS011;38044;45.148;39.604;2023-08-06T00:24:16;6.13;;;3.83;;
52031;SDS011;38044;45.148;39.604;2023-08-06T00:26:41;7.43;;;4.35;;
52031;SDS011;38044;45.148;39.604;2023-08-06T00:29:07;5.85;;;3.90;;
52031;SDS011;38044;45.148;39.604;2023-08-06T00:31:33;7.38;;;4.30;;
52031;SDS011;38044;45.148;39.604;2023-08-06T00:33:59;10.10;;;4.47;;
52031;SDS011;38044;45.148;39.604;2023-08-06T00:36:24;8.07;;;4.32;;
52031;SDS011;38044;45.148;39.604;2023-08-06T00:38:50;5.85;;;4.43;;
52031;SDS011;38044;45.148;39.604;2023-08-06T00:41:17;9.07;;;4.55;;
52031;SDS011;38044;45.148;39.604;2023-08-06T00:43:42;10.05;;;4.90;;
52031;SDS011;38044;45.148;39.604;2023-08-06T00:46:08;8.33;;;4.50;;
52031;SDS011;38044;45.148;39.604;2023-08-06T00:48:35;7.43;;;4.70;;
52031;SDS011;38044;45.148;39.604;2023-08-06T00:51:01;6.50;;;4.47;;
52031;SDS011;38044;45.148;39.604;2023-08-06T00:53:27;8.73;;;4.45;;
52031;SDS011;38044;45.148;39.604;2023-08-06T00:55:53;5.82;;;4.35;;
52031;SDS011;38044;45.148;39.604;2023-08-06T00:58:19;8.83;;;4.93;;
52031;SDS011;38044;45.148;39.604;2023-08-06T01:00:45;6.55;;;4.57;;
52031;SDS011;38044;45.148;39.604;2023-08-06T01:03:11;7.05;;;4.20;;
52031;SDS011;38044;45.148;39.604;2023-08-06T01:05:36;7.80;;;4.83;;
52031;SDS011;38044;45.148;39.604;2023-08-06T01:08:15;6.60;;;4.60;;
52031;SDS011;38044;45.148;39.604;2023-08-06T01:16:12;7.73;;;4.50;;
52031;SDS011;38044;45.148;39.604;2023-08-06T01:18:42;7.30;;;4.45;;
52031;SDS011;38044;45.148;39.604;2023-08-06T01:21:12;7.57;;;5.10;;
52031;SDS011;38044;45.148;39.604;2023-08-06T01:23:38;7.38;;;4.65;;
52031;SDS011;38044;45.148;39.604;2023-08-06T01:31:35;8.07;;;4.70;;
52031;SDS011;38044;45.148;39.604;2023-08-06T01:36:53;8.45;;;5.10;;
52031;SDS011;38044;45.148;39.604;2023-08-06T01:39:19;8.77;;;4.70;;
52031;SDS011;38044;45.148;39.604;2023-08-06T01:41:46;6.95;;;4.60;;
52031;SDS011;38044;45.148;39.604;2023-08-06T01:44:13;8.55;;;5.15;;
52031;SDS011;38044;45.148;39.604;2023-08-06T01:46:39;6.28;;;4.60;;
52031;SDS011;38044;45.148;39.604;2023-08-06T01:49:05;8.18;;;5.25;;
52031;SDS011;38044;45.148;39.604;2023-08-06T01:51:31;7.67;;;4.73;;
52031;SDS011;38044;45.148;39.604;2023-08-06T01:53:57;9.25;;;5.10;;
52031;SDS011;38044;45.148;39.604;2023-08-06T01:56:22;7.13;;;5.43;;
52031;SDS011;38044;45.148;39.604;2023-08-06T01:58:49;6.60;;;5.10;;
52031;SDS011;38044;45.148;39.604;2023-08-06T02:01:15;7.72;;;5.22;;
52031;SDS011;38044;45.148;39.604;2023-08-06T02:03:41;9.13;;;5.37;;
52031;SDS011;38044;45.148;39.604;2023-08-06T02:06:07;7.32;;;5.15;;
52031;SDS011;38044;45.148;39.604;2023-08-06T02:08:33;9.18;;;5.20;;
52031;SDS011;38044;45.148;39.604;2023-08-06T02:10:58;9.05;;;5.85;;
52031;SDS011;38044;45.148;39.604;2023-08-06T02:13:24;10.05;;;5.50;;
52031;SDS011;38044;45.148;39.604;2023-08-06T02:15:50;11.47;;;5.97;;
52031;SDS011;38044;45.148;39.604;2023-08-06T02:18:16;9.18;;;5.35;;
52031;SDS011;38044;45.148;39.604;2023-08-06T02:20:42;6.13;;;5.27;;
52031;SDS011;38044;45.148;39.604;2023-08-06T02:23:08;7.17;;;5.33;;
52031;SDS011;38044;45.148;39.604;2023-08-06T02:25:35;8.33;;;5.60;;
52031;SDS011;38044;45.148;39.604;2023-08-06T02:28:01;11.33;;;5.97;;
52031;SDS011;38044;45.148;39.604;2023-08-06T02:30:26;8.63;;;5.65;;
52031;SDS011;38044;45.148;39.604;2023-08-06T02:32:52;8.68;;;5.53;;
52031;SDS011;38044;45.148;39.604;2023-08-06T02:35:18;8.18;;;5.60;;
52031;SDS011;38044;45.148;39.604;2023-08-06T02:37:44;8.68;;;5.60;;
52031;SDS011;38044;45.148;39.604;2023-08-06T02:40:10;8.00;;;5.90;;
52031;SDS011;38044;45.148;39.604;2023-08-06T02:42:36;8.48;;;5.78;;
52031;SDS011;38044;45.148;39.604;2023-08-06T02:45:02;6.93;;;4.80;;
52031;SDS011;38044;45.148;39.604;2023-08-06T02:47:28;6.93;;;4.70;;
52031;SDS011;38044;45.148;39.604;2023-08-06T02:49:53;9.27;;;5.63;;
52031;SDS011;38044;45.148;39.604;2023-08-06T02:52:19;8.02;;;5.15;;
52031;SDS011;38044;45.148;39.604;2023-08-06T02:54:45;8.83;;;5.80;;
52031;SDS011;38044;45.148;39.604;2023-08-06T02:57:11;11.18;;;5.72;;
52031;SDS011;38044;45.148;39.604;2023-08-06T02:59:37;9.30;;;6.10;;
52031;SDS011;38044;45.148;39.604;2023-08-06T03:02:02;9.50;;;5.63;;
52031;SDS011;38044;45.148;39.604;2023-08-06T03:04:28;7.72;;;5.30;;
52031;SDS011;38044;45.148;39.604;2023-08-06T03:06:54;12.80;;;6.28;;
52031;SDS011;38044;45.148;39.604;2023-08-06T03:09:20;7.97;;;5.93;;
52031;SDS011;38044;45.148;39.604;2023-08-06T03:11:45;9.15;;;6.32;;
52031;SDS011;38044;45.148;39.604;2023-08-06T03:14:11;10.70;;;6.68;;
52031;SDS011;38044;45.148;39.604;2023-08-06T03:16:37;9.52;;;6.63;;
52031;SDS011;38044;45.148;39.604;2023-08-06T03:19:03;10.93;;;6.95;;
52031;SDS011;38044;45.148;39.604;2023-08-06T03:21:29;11.33;;;6.90;;
52031;SDS011;38044;45.148;39.604;2023-08-06T03:23:54;13.98;;;7.05;;
52031;SDS011;38044;45.148;39.604;2023-08-06T03:26:20;8.90;;;6.90;;
52031;SDS011;38044;45.148;39.604;2023-08-06T03:28:46;10.98;;;7.18;;
52031;SDS011;38044;45.148;39.604;2023-08-06T03:31:12;10.27;;;6.60;;
52031;SDS011;38044;45.148;39.604;2023-08-06T03:33:37;10.57;;;6.82;;
52031;SDS011;38044;45.148;39.604;2023-08-06T03:36:03;12.70;;;7.27;;
52031;SDS011;38044;45.148;39.604;2023-08-06T03:38:29;9.63;;;6.95;;
52031;SDS011;38044;45.148;39.604;2023-08-06T03:40:55;12.70;;;7.40;;
52031;SDS011;38044;45.148;39.604;2023-08-06T03:43:21;10.45;;;6.88;;
52031;SDS011;38044;45.148;39.604;2023-08-06T03:45:47;9.90;;;7.15;;
52031;SDS011;38044;45.148;39.604;2023-08-06T03:48:12;13.13;;;7.77;;
52031;SDS011;38044;45.148;39.604;2023-08-06T03:50:38;11.57;;;6.80;;
52031;SDS011;38044;45.148;39.604;2023-08-06T03:53:04;10.15;;;7.60;;
52031;SDS011;38044;45.148;39.604;2023-08-06T03:55:30;12.05;;;7.20;;
52031;SDS011;38044;45.148;39.604;2023-08-06T03:57:56;9.70;;;6.53;;
52031;SDS011;38044;45.148;39.604;2023-08-06T04:00:21;10.17;;;6.87;;
52031;SDS011;38044;45.148;39.604;2023-08-06T04:02:47;28.35;;;7.90;;
52031;SDS011;38044;45.148;39.604;2023-08-06T04:05:14;8.27;;;6.03;;
52031;SDS011;38044;45.148;39.604;2023-08-06T04:07:40;10.18;;;6.03;;
52031;SDS011;38044;45.148;39.604;2023-08-06T04:10:06;9.10;;;5.83;;
52031;SDS011;38044;45.148;39.604;2023-08-06T04:12:31;10.10;;;6.22;;
52031;SDS011;38044;45.148;39.604;2023-08-06T04:15:01;6.30;;;5.03;;
52031;SDS011;38044;45.148;39.604;2023-08-06T04:17:28;7.80;;;5.68;;
52031;SDS011;38044;45.148;39.604;2023-08-06T04:19:54;9.52;;;4.93;;
52031;SDS011;38044;45.148;39.604;2023-08-06T04:22:23;7.00;;;4.72;;
52031;SDS011;38044;45.148;39.604;2023-08-06T04:24:49;8.53;;;5.23;;
52031;SDS011;38044;45.148;39.604;2023-08-06T04:27:15;10.00;;;4.97;;
52031;SDS011;38044;45.148;39.604;2023-08-06T04:29:41;6.20;;;4.43;;
52031;SDS011;38044;45.148;39.604;2023-08-06T04:32:08;7.20;;;4.85;;
52031;SDS011;38044;45.148;39.604;2023-08-06T04:34:35;7.05;;;4.32;;
52031;SDS011;38044;45.148;39.604;2023-08-06T04:37:02;7.15;;;4.75;;
52031;SDS011;38044;45.148;39.604;2023-08-06T04:39:29;7.10;;;4.38;;
52031;SDS011;38044;45.148;39.604;2023-08-06T04:41:55;6.90;;;4.20;;
52031;SDS011;38044;45.148;39.604;2023-08-06T04:44:22;9.40;;;4.50;;
52031;SDS011;38044;45.148;39.604;2023-08-06T04:46:48;6.20;;;3.85;;
52031;SDS011;38044;45.148;39.604;2023-08-06T10:30:33;9.13;;;2.20;;
52031;SDS011;38044;45.148;39.604;2023-08-06T10:33:00;10.35;;;2.10;;
52031;SDS011;38044;45.148;39.604;2023-08-06T10:35:27;11.25;;;2.42;;
52031;SDS011;38044;45.148;39.604;2023-08-06T10:38:03;7.60;;;2.22;;
52031;SDS011;38044;45.148;39.604;2023-08-06T10:40:49;7.07;;;2.05;;
52031;SDS011;38044;45.148;39.604;2023-08-06T10:43:28;6.07;;;2.00;;
52031;SDS011;38044;45.148;39.604;2023-08-06T10:45:58;15.73;;;2.87;;
52031;SDS011;38044;45.148;39.604;2023-08-06T10:48:58;15.00;;;2.60;;
52031;SDS011;38044;45.148;39.604;2023-08-06T10:51:17;7.13;;;2.03;;
52031;SDS011;38044;45.148;39.604;2023-08-06T10:53:44;7.15;;;2.20;;
52031;SDS011;38044;45.148;39.604;2023-08-06T10:56:17;10.27;;;2.15;;
52031;SDS011;38044;45.148;39.604;2023-08-06T11:33:20;8.90;;;2.22;;
52031;SDS011;38044;45.148;39.604;2023-08-06T11:35:48;37.00;;;4.38;;
52031;SDS011;38044;45.148;39.604;2023-08-06T14:38:28;9.75;;;2.85;;
52031;SDS011;38044;45.148;39.604;2023-08-06T14:40:54;7.90;;;3.13;;
52031;SDS011;38044;45.148;39.604;2023-08-06T14:43:20;48.70;;;5.40;;
52031;SDS011;38044;45.148;39.604;2023-08-06T14:45:48;5.45;;;2.53;;
52031;SDS011;38044;45.148;39.604;2023-08-06T14:48:14;7.20;;;2.70;;
52031;SDS011;38044;45.148;39.604;2023-08-06T14:50:43;15.63;;;3.00;;
52031;SDS011;38044;45.148;39.604;2023-08-06T14:53:09;9.65;;;2.80;;
52031;SDS011;38044;45.148;39.604;2023-08-06T14:55:37;7.15;;;3.72;;
52031;SDS011;38044;45.148;39.604;2023-08-06T14:58:02;9.57;;;5.32;;
52031;SDS011;38044;45.148;39.604;2023-08-06T15:00:28;8.00;;;3.25;;
52031;SDS011;38044;45.148;39.604;2023-08-06T15:02:54;7.10;;;2.67;;
52031;SDS011;38044;45.148;39.604;2023-08-06T15:05:20;67.80;;;7.53;;
52031;SDS011;38044;45.148;39.604;2023-08-06T15:07:46;9.10;;;2.60;;
52031;SDS011;38044;45.148;39.604;2023-08-06T15:10:13;9.57;;;2.80;;
52031;SDS011;38044;45.148;39.604;2023-08-06T15:12:39;17.83;;;3.60;;
52031;SDS011;38044;45.148;39.604;2023-08-06T15:15:06;6.83;;;2.50;;
52031;SDS011;38044;45.148;39.604;2023-08-06T15:17:33;6.87;;;2.90;;
52031;SDS011;38044;45.148;39.604;2023-08-06T15:19:59;7.65;;;2.63;;
52031;SDS011;38044;45.148;39.604;2023-08-06T15:22:25;8.43;;;2.63;;
52031;SDS011;38044;45.148;39.604;2023-08-06T15:24:51;5.65;;;2.60;;
52031;SDS011;38044;45.148;39.604;2023-08-06T15:27:17;7.75;;;3.10;;
52031;SDS011;38044;45.148;39.604;2023-08-06T15:29:43;8.23;;;2.90;;
52031;SDS011;38044;45.148;39.604;2023-08-06T15:32:09;7.82;;;2.88;;
52031;SDS011;38044;45.148;39.604;2023-08-06T15:34:35;9.98;;;3.30;;
52031;SDS011;38044;45.148;39.604;2023-08-06T15:37:01;7.20;;;2.80;;
52031;SDS011;38044;45.148;39.604;2023-08-06T15:39:28;7.05;;;3.20;;
52031;SDS011;38044;45.148;39.604;2023-08-06T15:41:54;10.83;;;3.37;;
52031;SDS011;38044;45.148;39.604;2023-08-06T15:44:20;12.65;;;3.58;;
52031;SDS011;38044;45.148;39.604;2023-08-06T15:46:45;9.73;;;3.45;;
52031;SDS011;38044;45.148;39.604;2023-08-06T15:49:11;10.90;;;3.33;;
52031;SDS011;38044;45.148;39.604;2023-08-06T15:51:37;7.97;;;3.30;;
52031;SDS011;38044;45.148;39.604;2023-08-06T15:54:03;9.32;;;3.17;;
52031;SDS011;38044;45.148;39.604;2023-08-06T15:56:29;11.13;;;3.55;;
52031;SDS011;38044;45.148;39.604;2023-08-06T15:58:55;10.10;;;3.22;;
52031;SDS011;38044;45.148;39.604;2023-08-06T16:01:21;8.57;;;3.13;;
52031;SDS011;38044;45.148;39.604;2023-08-06T16:03:47;7.55;;;3.33;;
52031;SDS011;38044;45.148;39.604;2023-08-06T16:06:12;18.13;;;4.10;;
52031;SDS011;38044;45.148;39.604;2023-08-06T16:08:39;7.68;;;3.55;;
52031;SDS011;38044;45.148;39.604;2023-08-06T16:11:05;10.02;;;3.63;;
52031;SDS011;38044;45.148;39.604;2023-08-06T16:13:32;8.63;;;3.20;;
52031;SDS011;38044;45.148;39.604;2023-08-06T16:15:58;9.10;;;3.40;;
52031;SDS011;38044;45.148;39.604;2023-08-06T16:18:24;8.93;;;3.30;;
52031;SDS011;38044;45.148;39.604;2023-08-06T16:20:50;12.17;;;3.47;;
52031;SDS011;38044;45.148;39.604;2023-08-06T16:23:17;18.25;;;4.07;;
52031;SDS011;38044;45.148;39.604;2023-08-06T16:25:43;9.43;;;3.30;;
52031;SDS011;38044;45.148;39.604;2023-08-06T16:28:12;8.07;;;3.15;;
52031;SDS011;38044;45.148;39.604;2023-08-06T16:30:45;7.90;;;3.47;;
52031;SDS011;38044;45.148;39.604;2023-08-06T16:33:11;8.23;;;3.40;;
52031;SDS011;38044;45.148;39.604;2023-08-06T16:35:37;16.48;;;4.03;;
52031;SDS011;38044;45.148;39.604;2023-08-06T16:38:03;17.87;;;4.37;;
52031;SDS011;38044;45.148;39.604;2023-08-06T16:40:29;12.00;;;3.92;;
52031;SDS011;38044;45.148;39.604;2023-08-06T16:42:54;16.70;;;4.03;;
52031;SDS011;38044;45.148;39.604;2023-08-06T16:45:20;12.40;;;4.10;;
52031;SDS011;38044;45.148;39.604;2023-08-06T16:47:46;12.85;;;4.03;;
52031;SDS011;38044;45.148;39.604;2023-08-06T16:50:14;11.02;;;3.60;;
52031;SDS011;38044;45.148;39.604;2023-08-06T16:52:41;9.77;;;3.90;;
52031;SDS011;38044;45.148;39.604;2023-08-06T16:55:07;11.32;;;3.90;;
52031;SDS011;38044;45.148;39.604;2023-08-06T16:57:33;17.27;;;4.60;;
52031;SDS011;38044;45.148;39.604;2023-08-06T17:00:00;12.82;;;4.00;;
52031;SDS011;38044;45.148;39.604;2023-08-06T17:02:26;10.57;;;4.05;;
52031;SDS011;38044;45.148;39.604;2023-08-06T17:04:52;14.98;;;3.95;;
52031;SDS011;38044;45.148;39.604;2023-08-06T17:07:18;11.60;;;3.67;;
52031;SDS011;38044;45.148;39.604;2023-08-06T17:09:44;9.13;;;3.35;;
52031;SDS011;38044;45.148;39.604;2023-08-06T17:12:10;10.77;;;3.70;;
52031;SDS011;38044;45.148;39.604;2023-08-06T17:14:36;11.18;;;3.80;;
52031;SDS011;38044;45.148;39.604;2023-08-06T17:17:03;9.65;;;4.18;;
52031;SDS011;38044;45.148;39.604;2023-08-06T17:19:32;25.93;;;5.50;;
52031;SDS011;38044;45.148;39.604;2023-08-06T17:21:58;27.77;;;9.50;;
52031;SDS011;38044;45.148;39.604;2023-08-06T17:24:24;63.80;;;32.95;;
52031;SDS011;38044;45.148;39.604;2023-08-06T17:26:50;35.17;;;16.80;;
52031;SDS011;38044;45.148;39.604;2023-08-06T17:29:21;18.60;;;8.10;;
52031;SDS011;38044;45.148;39.604;2023-08-06T17:31:47;26.38;;;10.88;;
52031;SDS011;38044;45.148;39.604;2023-08-06T17:34:13;42.23;;;15.80;;
52031;SDS011;38044;45.148;39.604;2023-08-06T17:36:38;37.72;;;18.23;;
52031;SDS011;38044;45.148;39.604;2023-08-06T17:39:04;33.53;;;19.73;;
52031;SDS011;38044;45.148;39.604;2023-08-06T17:41:30;46.40;;;27.40;;
52031;SDS011;38044;45.148;39.604;2023-08-06T17:43:56;49.88;;;30.65;;
52031;SDS011;38044;45.148;39.604;2023-08-06T17:46:22;49.33;;;31.10;;
52031;SDS011;38044;45.148;39.604;2023-08-06T17:48:47;46.60;;;29.05;;
52031;SDS011;38044;45.148;39.604;2023-08-06T17:51:13;57.63;;;33.03;;
52031;SDS011;38044;45.148;39.604;2023-08-06T17:53:39;66.40;;;39.78;;
52031;SDS011;38044;45.148;39.604;2023-08-06T17:56:05;70.38;;;43.95;;
52031;SDS011;38044;45.148;39.604;2023-08-06T17:58:31;62.28;;;37.47;;
52031;SDS011;38044;45.148;39.604;2023-08-06T18:00:56;44.78;;;25.75;;
52031;SDS011;38044;45.148;39.604;2023-08-06T18:03:22;33.00;;;19.27;;
52031;SDS011;38044;45.148;39.604;2023-08-06T18:05:53;31.98;;;14.98;;
52031;SDS011;38044;45.148;39.604;2023-08-06T18:08:23;27.08;;;12.45;;
52031;SDS011;38044;45.148;39.604;2023-08-06T18:10:50;21.33;;;9.52;;
52031;SDS011;38044;45.148;39.604;2023-08-06T18:13:16;20.48;;;7.80;;
52031;SDS011;38044;45.148;39.604;2023-08-06T18:15:42;18.17;;;6.32;;
52031;SDS011;38044;45.148;39.604;2023-08-06T18:18:08;14.60;;;6.27;;
52031;SDS011;38044;45.148;39.604;2023-08-06T18:20:34;18.58;;;6.55;;
52031;SDS011;38044;45.148;39.604;2023-08-06T18:23:01;18.80;;;7.57;;
52031;SDS011;38044;45.148;39.604;2023-08-06T18:25:27;47.72;;;22.08;;
52031;SDS011;38044;45.148;39.604;2023-08-06T18:27:53;16.13;;;7.90;;
52031;SDS011;38044;45.148;39.604;2023-08-06T18:30:19;17.08;;;6.75;;
52031;SDS011;38044;45.148;39.604;2023-08-06T18:32:45;13.93;;;5.83;;
52031;SDS011;38044;45.148;39.604;2023-08-06T18:35:11;17.10;;;5.85;;
52031;SDS011;38044;45.148;39.604;2023-08-06T18:37:37;33.42;;;7.65;;
52031;SDS011;38044;45.148;39.604;2023-08-06T18:40:07;24.52;;;6.35;;
52031;SDS011;38044;45.148;39.604;2023-08-06T18:42:34;21.00;;;7.33;;
52031;SDS011;38044;45.148;39.604;2023-08-06T18:45:00;27.80;;;8.90;;
52031;SDS011;38044;45.148;39.604;2023-08-06T18:47:26;17.40;;;5.45;;
52031;SDS011;38044;45.148;39.604;2023-08-06T18:49:53;16.13;;;5.00;;
52031;SDS011;38044;45.148;39.604;2023-08-06T18:52:19;23.70;;;5.10;;
52031;SDS011;38044;45.148;39.604;2023-08-06T18:54:45;16.75;;;4.82;;
52031;SDS011;38044;45.148;39.604;2023-08-06T18:57:11;15.30;;;4.17;;
52031;SDS011;38044;45.148;39.604;2023-08-06T18:59:37;15.70;;;4.30;;
52031;SDS011;38044;45.148;39.604;2023-08-06T19:02:02;25.67;;;4.53;;
52031;SDS011;38044;45.148;39.604;2023-08-06T19:04:29;18.55;;;3.70;;
52031;SDS011;38044;45.148;39.604;2023-08-06T19:06:54;17.80;;;3.87;;
52031;SDS011;38044;45.148;39.604;2023-08-06T19:09:21;15.73;;;3.67;;
52031;SDS011;38044;45.148;39.604;2023-08-06T19:11:47;23.40;;;3.92;;
52031;SDS011;38044;45.148;39.604;2023-08-06T19:14:13;16.92;;;3.78;;
52031;SDS011;38044;45.148;39.604;2023-08-06T19:16:38;26.85;;;4.68;;
52031;SDS011;38044;45.148;39.604;2023-08-06T19:19:10;16.23;;;3.83;;
52031;SDS011;38044;45.148;39.604;2023-08-06T19:21:39;13.40;;;3.53;;
52031;SDS011;38044;45.148;39.604;2023-08-06T19:24:09;14.77;;;3.70;;
52031;SDS011;38044;45.148;39.604;2023-08-06T19:26:35;15.75;;;3.72;;
52031;SDS011;38044;45.148;39.604;2023-08-06T19:29:00;17.08;;;3.80;;
52031;SDS011;38044;45.148;39.604;2023-08-06T19:31:27;17.33;;;4.43;;
52031;SDS011;38044;45.148;39.604;2023-08-06T19:33:53;18.92;;;4.30;;
52031;SDS011;38044;45.148;39.604;2023-08-06T19:36:19;18.10;;;5.00;;
52031;SDS011;38044;45.148;39.604;2023-08-06T19:38:44;18.17;;;5.20;;
52031;SDS011;38044;45.148;39.604;2023-08-06T19:41:10;17.90;;;5.63;;
52031;SDS011;38044;45.148;39.604;2023-08-06T19:43:36;23.73;;;6.32;;
52031;SDS011;38044;45.148;39.604;2023-08-06T19:46:03;19.90;;;6.20;;
52031;SDS011;38044;45.148;39.604;2023-08-06T19:48:29;21.73;;;6.20;;
52031;SDS011;38044;45.148;39.604;2023-08-06T19:50:57;24.30;;;5.65;;
52031;SDS011;38044;45.148;39.604;2023-08-06T19:53:27;20.37;;;5.43;;
52031;SDS011;38044;45.148;39.604;2023-08-06T19:55:56;23.50;;;5.03;;
52031;SDS011;38044;45.148;39.604;2023-08-06T19:58:26;15.90;;;4.63;;
52031;SDS011;38044;45.148;39.604;2023-08-06T20:00:53;17.02;;;3.95;;
52031;SDS011;38044;45.148;39.604;2023-08-06T20:03:20;19.05;;;4.55;;
52031;SDS011;38044;45.148;39.604;2023-08-06T20:05:46;17.25;;;4.13;;
52031;SDS011;38044;45.148;39.604;2023-08-06T20:08:12;23.10;;;4.30;;
52031;SDS011;38044;45.148;39.604;2023-08-06T20:10:38;16.40;;;4.22;;
52031;SDS011;38044;45.148;39.604;2023-08-06T20:13:06;20.33;;;4.70;;
52031;SDS011;38044;45.148;39.604;2023-08-06T20:15:35;16.17;;;4.30;;
52031;SDS011;38044;45.148;39.604;2023-08-06T20:18:01;24.63;;;4.80;;
52031;SDS011;38044;45.148;39.604;2023-08-06T20:20:27;20.80;;;4.20;;
52031;SDS011;38044;45.148;39.604;2023-08-06T20:22:53;17.75;;;4.10;;
52031;SDS011;38044;45.148;39.604;2023-08-06T20:25:19;19.93;;;5.43;;
52031;SDS011;38044;45.148;39.604;2023-08-06T20:27:44;23.33;;;4.70;;
52031;SDS011;38044;45.148;39.604;2023-08-06T20:30:10;23.40;;;4.50;;
52031;SDS011;38044;45.148;39.604;2023-08-06T20:32:37;24.77;;;4.90;;
52031;SDS011;38044;45.148;39.604;2023-08-06T20:35:03;22.70;;;4.93;;
52031;SDS011;38044;45.148;39.604;2023-08-06T20:37:29;24.88;;;5.15;;
52031;SDS011;38044;45.148;39.604;2023-08-06T20:39:55;22.27;;;4.60;;
52031;SDS011;38044;45.148;39.604;2023-08-06T20:42:21;18.63;;;4.85;;
52031;SDS011;38044;45.148;39.604;2023-08-06T20:44:47;16.88;;;4.32;;
52031;SDS011;38044;45.148;39.604;2023-08-06T20:47:13;23.17;;;4.73;;
52031;SDS011;38044;45.148;39.604;2023-08-06T20:49:39;21.63;;;4.40;;
52031;SDS011;38044;45.148;39.604;2023-08-06T20:52:05;20.52;;;4.18;;
52031;SDS011;38044;45.148;39.604;2023-08-06T20:54:31;20.98;;;5.25;;
52031;SDS011;38044;45.148;39.604;2023-08-06T20:56:57;36.70;;;5.40;;
52031;SDS011;38044;45.148;39.604;2023-08-06T20:59:24;27.40;;;5.10;;
52031;SDS011;38044;45.148;39.604;2023-08-06T21:01:50;29.25;;;5.25;;
52031;SDS011;38044;45.148;39.604;2023-08-06T21:04:16;24.23;;;5.03;;
52031;SDS011;38044;45.148;39.604;2023-08-06T21:06:41;23.83;;;4.90;;
52031;SDS011;38044;45.148;39.604;2023-08-06T21:09:07;25.40;;;5.10;;
52031;SDS011;38044;45.148;39.604;2023-08-06T21:11:33;24.30;;;4.10;;
52031;SDS011;38044;45.148;39.604;2023-08-06T21:13:59;21.93;;;4.73;;
52031;SDS011;38044;45.148;39.604;2023-08-06T21:16:25;18.77;;;5.03;;
52031;SDS011;38044;45.148;39.604;2023-08-06T21:18:52;27.63;;;5.00;;
52031;SDS011;38044;45.148;39.604;2023-08-06T21:21:19;27.30;;;4.63;;
52031;SDS011;38044;45.148;39.604;2023-08-06T21:23:45;31.00;;;5.30;;
52031;SDS011;38044;45.148;39.604;2023-08-06T21:26:10;21.33;;;4.28;;
52031;SDS011;38044;45.148;39.604;2023-08-06T21:28:37;20.40;;;4.55;;
52031;SDS011;38044;45.148;39.604;2023-08-06T21:31:10;16.33;;;3.90;;
52031;SDS011;38044;45.148;39.604;2023-08-06T21:33:38;23.85;;;4.57;;
52031;SDS011;38044;45.148;39.604;2023-08-06T21:36:05;19.58;;;4.45;;
52031;SDS011;38044;45.148;39.604;2023-08-06T21:38:33;20.13;;;4.20;;
52031;SDS011;38044;45.148;39.604;2023-08-06T21:41:09;25.13;;;4.75;;
52031;SDS011;38044;45.148;39.604;2023-08-06T21:43:44;22.20;;;4.90;;
52031;SDS011;38044;45.148;39.604;2023-08-06T21:46:12;27.87;;;4.87;;
52031;SDS011;38044;45.148;39.604;2023-08-06T21:48:41;22.20;;;4.22;;
52031;SDS011;38044;45.148;39.604;2023-08-06T21:51:09;23.27;;;4.00;;
52031;SDS011;38044;45.148;39.604;2023-08-06T21:53:37;22.08;;;4.13;;
52031;SDS011;38044;45.148;39.604;2023-08-06T21:56:04;22.73;;;4.30;;
52031;SDS011;38044;45.148;39.604;2023-08-06T21:58:34;21.42;;;4.13;;
52031;SDS011;38044;45.148;39.604;2023-08-06T22:01:02;22.67;;;4.22;;
52031;SDS011;38044;45.148;39.604;2023-08-06T22:03:29;24.77;;;4.37;;
52031;SDS011;38044;45.148;39.604;2023-08-06T22:05:56;24.98;;;4.93;;
52031;SDS011;38044;45.148;39.604;2023-08-06T22:08:22;21.00;;;4.27;;
52031;SDS011;38044;45.148;39.604;2023-08-06T22:10:48;19.77;;;3.83;;
52031;SDS011;38044;45.148;39.604;2023-08-06T22:13:14;22.20;;;4.25;;
52031;SDS011;38044;45.148;39.604;2023-08-06T22:15:40;23.95;;;4.63;;
52031;SDS011;38044;45.148;39.604;2023-08-06T22:18:06;21.37;;;4.13;;
52031;SDS011;38044;45.148;39.604;2023-08-06T22:20:33;23.92;;;4.25;;
52031;SDS011;38044;45.148;39.604;2023-08-06T22:22:59;24.50;;;4.25;;
52031;SDS011;38044;45.148;39.604;2023-08-06T22:25:25;22.38;;;4.30;;
52031;SDS011;38044;45.148;39.604;2023-08-06T22:27:53;24.70;;;4.63;;
52031;SDS011;38044;45.148;39.604;2023-08-06T22:30:18;23.80;;;3.92;;
52031;SDS011;38044;45.148;39.604;2023-08-06T22:32:45;25.35;;;4.70;;
52031;SDS011;38044;45.148;39.604;2023-08-06T22:35:11;25.33;;;4.30;;
52031;SDS011;38044;45.148;39.604;2023-08-06T22:37:45;20.50;;;4.50;;
52031;SDS011;38044;45.148;39.604;2023-08-06T22:40:14;22.33;;;4.35;;
52031;SDS011;38044;45.148;39.604;2023-08-06T22:42:41;20.98;;;4.47;;
52031;SDS011;38044;45.148;39.604;2023-08-06T22:45:08;16.92;;;4.38;;
52031;SDS011;38044;45.148;39.604;2023-08-06T22:47:36;20.75;;;4.18;;
52031;SDS011;38044;45.148;39.604;2023-08-06T22:50:06;24.15;;;3.92;;
52031;SDS011;38044;45.148;39.604;2023-08-06T22:52:33;24.52;;;4.30;;
52031;SDS011;38044;45.148;39.604;2023-08-06T22:54:59;25.33;;;4.50;;
52031;SDS011;38044;45.148;39.604;2023-08-06T22:57:24;23.42;;;4.35;;
52031;SDS011;38044;45.148;39.604;2023-08-06T22:59:51;17.63;;;4.47;;
52031;SDS011;38044;45.148;39.604;2023-08-06T23:02:17;16.60;;;4.32;;
52031;SDS011;38044;45.148;39.604;2023-08-06T23:04:43;20.40;;;4.40;;
52031;SDS011;38044;45.148;39.604;2023-08-06T23:07:09;21.00;;;4.43;;
52031;SDS011;38044;45.148;39.604;2023-08-06T23:09:35;20.57;;;3.97;;
52031;SDS011;38044;45.148;39.604;2023-08-06T23:12:01;18.77;;;4.50;;
52031;SDS011;38044;45.148;39.604;2023-08-06T23:14:28;20.40;;;4.65;;
52031;SDS011;38044;45.148;39.604;2023-08-06T23:16:53;19.83;;;4.47;;
52031;SDS011;38044;45.148;39.604;2023-08-06T23:19:19;21.27;;;4.63;;
52031;SDS011;38044;45.148;39.604;2023-08-06T23:21:45;20.37;;;4.27;;
52031;SDS011;38044;45.148;39.604;2023-08-06T23:24:11;19.20;;;4.40;;
52031;SDS011;38044;45.148;39.604;2023-08-06T23:26:37;20.63;;;4.47;;
52031;SDS011;38044;45.148;39.604;2023-08-06T23:29:02;26.27;;;4.40;;
52031;SDS011;38044;45.148;39.604;2023-08-06T23:31:28;17.27;;;4.10;;
52031;SDS011;38044;45.148;39.604;2023-08-06T23:33:54;23.63;;;4.97;;
52031;SDS011;38044;45.148;39.604;2023-08-06T23:36:20;23.83;;;4.70;;
52031;SDS011;38044;45.148;39.604;2023-08-06T23:38:46;24.83;;;5.10;;
52031;SDS011;38044;45.148;39.604;2023-08-06T23:41:12;19.05;;;4.65;;
52031;SDS011;38044;45.148;39.604;2023-08-06T23:43:38;18.60;;;4.43;;
52031;SDS011;38044;45.148;39.604;2023-08-06T23:46:04;18.93;;;4.80;;
52031;SDS011;38044;45.148;39.604;2023-08-06T23:48:30;22.73;;;4.35;;
52031;SDS011;38044;45.148;39.604;2023-08-06T23:50:55;27.27;;;4.73;;
52031;SDS011;38044;45.148;39.604;2023-08-06T23:53:21;23.75;;;4.82;;